createdAt,value
2018-11-10T00:02:24.629Z,77.45
2018-11-10T00:05:05.381Z,77.12
2018-11-10T00:07:39.396Z,77.00
2018-11-10T00:10:15.957Z,77.15
2018-11-10T00:12:49.741Z,77.13
2018-11-10T00:15:24.576Z,77.00
2018-11-10T00:18:13.381Z,76.92
2018-11-10T00:20:51.465Z,76.87
2018-11-10T00:23:25.546Z,77.03
2018-11-10T00:26:04.690Z,77.16
2018-11-10T00:28:41.382Z,77.11
2018-11-10T00:31:14.324Z,77.25
2018-11-10T00:33:47.888Z,77.34
2018-11-10T00:36:21.541Z,77.25
2018-11-10T00:38:57.602Z,77.25
2018-11-10T00:41:34.206Z,77.04
2018-11-10T00:44:09.653Z,76.90
2018-11-10T00:46:46.121Z,76.79
2018-11-10T00:49:26.073Z,76.66
2018-11-10T00:51:59.974Z,76.51
2018-11-10T00:54:33.525Z,76.22
2018-11-10T00:57:07.626Z,75.80
2018-11-10T00:59:42.163Z,75.75
2018-11-10T01:02:15.063Z,75.50
2018-11-10T01:04:51.136Z,74.99
2018-11-10T01:07:25.084Z,74.69
2018-11-10T01:09:58.434Z,74.05
2018-11-10T01:12:32.665Z,73.71
2018-11-10T01:15:13.440Z,73.54
2018-11-10T01:17:48.074Z,73.34
2018-11-10T01:20:26.597Z,73.31
2018-11-10T01:23:01.893Z,73.48
2018-11-10T01:25:38.218Z,73.45
2018-11-10T01:28:11.858Z,73.55
2018-11-10T01:30:45.783Z,73.49
2018-11-10T01:33:21.438Z,73.48
2018-11-10T01:35:56.318Z,73.48
2018-11-10T01:38:30.582Z,73.32
2018-11-10T01:41:04.794Z,73.21
2018-11-10T01:43:37.574Z,72.79
2018-11-10T01:46:10.125Z,72.70
2018-11-10T01:48:46.421Z,72.37
2018-11-10T01:51:18.997Z,72.33
2018-11-10T01:53:52.343Z,72.35
2018-11-10T01:56:26.907Z,72.21
2018-11-10T01:58:59.923Z,71.98
2018-11-10T02:01:32.547Z,71.82
2018-11-10T02:04:11.674Z,71.40
2018-11-10T02:06:45.861Z,71.28
2018-11-10T02:09:18.531Z,71.21
2018-11-10T02:11:53.094Z,71.10
2018-11-10T02:14:27.065Z,71.12
2018-11-10T02:17:02.106Z,70.97
2018-11-10T02:19:36.038Z,70.84
2018-11-10T02:22:08.541Z,70.62
2018-11-10T02:24:42.387Z,70.57
2018-11-10T02:27:20.763Z,70.37
2018-11-10T02:29:54.992Z,70.26
2018-11-10T02:32:31.318Z,70.06
2018-11-10T02:35:04.923Z,69.79
2018-11-10T02:37:38.249Z,69.69
2018-11-10T02:40:14.427Z,69.52
2018-11-10T02:42:49.269Z,69.11
2018-11-10T02:45:21.834Z,68.68
2018-11-10T02:47:59.635Z,68.60
2018-11-10T02:50:32.505Z,68.43
2018-11-10T02:53:05.313Z,68.18
2018-11-10T02:55:42.281Z,67.87
2018-11-10T02:58:17.221Z,67.51
2018-11-10T03:00:50.418Z,67.13
2018-11-10T03:03:23.713Z,66.92
2018-11-10T03:05:56.974Z,66.79
2018-11-10T03:08:29.565Z,66.90
2018-11-10T03:11:02.472Z,66.65
2018-11-10T03:13:36.986Z,66.38
2018-11-10T03:16:09.908Z,66.36
2018-11-10T03:18:42.978Z,66.24
2018-11-10T03:21:17.281Z,66.15
2018-11-10T03:23:50.671Z,65.96
2018-11-10T03:26:25.786Z,65.76
2018-11-10T03:28:58.670Z,65.29
2018-11-10T03:31:34.278Z,65.21
2018-11-10T03:34:08.225Z,65.01
2018-11-10T03:36:42.198Z,64.93
2018-11-10T03:39:14.846Z,64.62
2018-11-10T03:41:48.929Z,64.38
2018-11-10T03:44:23.003Z,64.15
2018-11-10T03:46:57.013Z,63.93
2018-11-10T03:49:31.293Z,63.71
2018-11-10T03:52:04.707Z,63.75
2018-11-10T03:54:37.237Z,63.64
2018-11-10T03:57:10.133Z,63.56
2018-11-10T03:59:45.747Z,63.33
2018-11-10T04:02:19.053Z,62.97
2018-11-10T04:04:55.409Z,63.00
2018-11-10T04:07:29.062Z,62.84
2018-11-10T04:10:01.716Z,62.84
2018-11-10T04:12:34.838Z,62.71
2018-11-10T04:15:07.558Z,62.76
2018-11-10T04:17:41.305Z,62.59
2018-11-10T04:20:15.359Z,62.47
2018-11-10T04:22:48.047Z,62.34
2018-11-10T04:25:20.737Z,62.32
2018-11-10T04:27:53.811Z,62.41
2018-11-10T04:30:26.424Z,62.26
2018-11-10T04:32:58.969Z,62.31
2018-11-10T04:35:31.782Z,62.37
2018-11-10T04:38:04.640Z,62.46
2018-11-10T04:40:37.110Z,62.20
2018-11-10T04:43:10.150Z,62.08
2018-11-10T04:45:43.133Z,62.02
2018-11-10T04:48:15.706Z,61.84
2018-11-10T04:50:49.047Z,62.00
2018-11-10T04:53:22.173Z,61.98
2018-11-10T04:55:55.911Z,61.88
2018-11-10T04:58:29.454Z,61.86
2018-11-10T05:01:02.974Z,61.64
2018-11-10T05:03:35.645Z,61.69
2018-11-10T05:06:08.650Z,61.44
2018-11-10T05:08:41.468Z,61.25
2018-11-10T05:11:14.517Z,61.27
2018-11-10T05:13:51.186Z,61.18
2018-11-10T05:16:25.142Z,61.07
2018-11-10T05:19:01.945Z,60.89
2018-11-10T05:21:38.800Z,60.76
2018-11-10T05:24:12.418Z,60.83
2018-11-10T05:26:45.285Z,60.61
2018-11-10T05:29:20.453Z,60.48
2018-11-10T05:31:54.849Z,60.74
2018-11-10T05:34:27.684Z,60.84
2018-11-10T05:37:03.574Z,61.13
2018-11-10T05:39:43.460Z,61.77
2018-11-10T05:42:16.093Z,63.08
2018-11-10T05:44:49.464Z,65.18
2018-11-10T05:47:22.021Z,66.86
2018-11-10T05:49:57.411Z,69.24
2018-11-10T05:52:31.327Z,71.20
2018-11-10T05:55:04.113Z,71.67
2018-11-10T05:57:42.076Z,73.04
2018-11-10T06:00:21.382Z,74.20
2018-11-10T06:02:53.926Z,75.56
2018-11-10T06:05:28.860Z,76.53
2018-11-10T06:08:02.335Z,77.60
2018-11-10T06:10:35.114Z,77.66
2018-11-10T06:13:09.118Z,78.44
2018-11-10T06:15:42.475Z,78.94
2018-11-10T06:18:15.110Z,79.09
2018-11-10T06:20:51.089Z,79.57
2018-11-10T06:23:23.756Z,79.96
2018-11-10T06:25:56.385Z,80.51
2018-11-10T06:28:29.363Z,80.01
2018-11-10T06:31:02.731Z,80.70
2018-11-10T06:33:35.555Z,80.72
2018-11-10T06:36:12.797Z,80.94
2018-11-10T06:38:45.540Z,81.27
2018-11-10T06:41:24.078Z,81.42
2018-11-10T06:43:58.902Z,82.02
2018-11-10T06:46:34.315Z,81.97
2018-11-10T06:49:07.919Z,81.80
2018-11-10T06:51:48.802Z,82.05
2018-11-10T06:54:22.757Z,82.35
2018-11-10T06:56:58.465Z,82.53
2018-11-10T06:59:32.587Z,82.86
2018-11-10T07:02:08.017Z,82.83
2018-11-10T07:04:42.893Z,83.19
2018-11-10T07:07:21.370Z,83.42
2018-11-10T07:09:54.092Z,83.92
2018-11-10T07:12:29.135Z,84.13
2018-11-10T07:15:04.352Z,84.34
2018-11-10T07:17:38.842Z,84.74
2018-11-10T07:20:11.600Z,85.00
2018-11-10T07:22:45.934Z,85.45
2018-11-10T07:25:18.583Z,85.62
2018-11-10T07:27:55.941Z,86.44
2018-11-10T07:30:29.270Z,86.94
2018-11-10T07:33:02.235Z,87.08
2018-11-10T07:35:37.427Z,87.22
2018-11-10T07:38:12.299Z,87.14
2018-11-10T07:40:52.216Z,86.81
2018-11-10T07:43:24.895Z,86.82
2018-11-10T07:46:01.242Z,87.11
2018-11-10T07:48:34.768Z,87.16
2018-11-10T07:51:08.626Z,87.18
2018-11-10T07:53:43.269Z,87.25
2018-11-10T07:56:19.295Z,87.33
2018-11-10T07:58:54.281Z,87.30
2018-11-10T08:01:44.608Z,86.82
2018-11-10T08:04:19.235Z,86.80
2018-11-10T08:06:53.326Z,86.64
2018-11-10T08:09:27.706Z,86.55
2018-11-10T08:12:02.568Z,86.56
2018-11-10T08:14:40.169Z,86.33
2018-11-10T08:17:17.163Z,86.23
2018-11-10T08:19:52.651Z,86.26
2018-11-10T08:22:31.705Z,86.19
2018-11-10T08:25:12.913Z,86.08
2018-11-10T08:27:46.669Z,85.89
2018-11-10T08:30:26.140Z,85.41
2018-11-10T08:33:01.164Z,85.24
2018-11-10T08:35:36.543Z,84.97
2018-11-10T08:38:13.098Z,84.80
2018-11-10T08:40:47.324Z,85.04
2018-11-10T08:43:20.999Z,84.87
2018-11-10T08:46:01.541Z,84.78
2018-11-10T08:48:38.556Z,84.86
2018-11-10T08:51:26.786Z,84.92
2018-11-10T08:54:02.450Z,85.30
2018-11-10T08:56:36.370Z,85.62
2018-11-10T08:59:11.311Z,85.52
2018-11-10T09:01:44.504Z,85.67
2018-11-10T09:04:18.362Z,85.72
2018-11-10T09:06:53.816Z,85.68
2018-11-10T09:09:32.897Z,85.57
2018-11-10T09:12:10.183Z,85.40
2018-11-10T09:14:44.454Z,85.26
2018-11-10T09:17:20.636Z,85.22
2018-11-10T09:19:57.485Z,85.17
2018-11-10T09:22:30.925Z,85.23
2018-11-10T09:25:08.425Z,85.31
2018-11-10T09:27:42.731Z,85.44
2018-11-10T09:30:19.423Z,85.45
2018-11-10T09:33:14.616Z,85.31
2018-11-10T09:35:51.235Z,85.09
2018-11-10T09:38:34.437Z,85.14
2018-11-10T09:41:12.895Z,85.00
2018-11-10T09:43:49.299Z,84.99
2018-11-10T09:46:25.801Z,85.03
2018-11-10T09:49:05.769Z,85.06
2018-11-10T09:51:42.623Z,84.84
2018-11-10T09:54:19.689Z,84.59
2018-11-10T09:56:54.551Z,84.68
2018-11-10T09:59:29.723Z,84.67
2018-11-10T10:02:06.483Z,84.77
2018-11-10T10:04:40.214Z,84.91
2018-11-10T10:07:22.232Z,85.18
2018-11-10T10:10:07.300Z,85.53
2018-11-10T10:12:44.272Z,85.89
2018-11-10T10:15:19.241Z,86.57
2018-11-10T10:17:53.447Z,87.12
2018-11-10T10:20:27.527Z,87.73
2018-11-10T10:23:03.478Z,88.46
2018-11-10T10:25:43.443Z,89.17
2018-11-10T10:28:21.764Z,89.74
2018-11-10T10:31:15.092Z,90.21
2018-11-10T10:33:52.520Z,90.78
2018-11-10T10:36:31.174Z,90.83
2018-11-10T10:39:12.343Z,91.14
2018-11-10T10:41:51.749Z,91.29
2018-11-10T10:44:26.580Z,91.49
2018-11-10T10:47:06.683Z,91.54
2018-11-10T10:49:43.862Z,91.62
2018-11-10T10:52:24.569Z,91.74
2018-11-10T10:55:10.481Z,91.84
2018-11-10T10:57:45.137Z,91.98
2018-11-10T11:00:26.452Z,92.12
2018-11-10T11:03:12.665Z,92.36
2018-11-10T11:05:57.526Z,92.68
2018-11-10T11:08:37.303Z,92.92
2018-11-10T11:11:11.659Z,93.17
2018-11-10T11:13:49.701Z,93.26
2018-11-10T11:16:23.452Z,93.46
2018-11-10T11:18:57.737Z,93.55
2018-11-10T11:21:32.953Z,93.63
2018-11-10T11:24:07.463Z,93.69
2018-11-10T11:26:41.947Z,93.64
2018-11-10T11:29:20.691Z,93.59
2018-11-10T11:31:54.410Z,93.53
2018-11-10T11:34:33.544Z,93.64
2018-11-10T11:37:10.626Z,93.70
2018-11-10T11:39:51.842Z,93.72
2018-11-10T11:42:27.190Z,93.78
2018-11-10T11:45:08.247Z,93.89
2018-11-10T11:47:48.076Z,94.02
2018-11-10T11:50:24.284Z,94.02
2018-11-10T11:52:59.334Z,94.07
2018-11-10T11:55:34.022Z,94.06
2018-11-10T11:58:08.911Z,94.17
2018-11-10T12:00:42.635Z,94.19
2018-11-10T12:03:19.518Z,94.27
2018-11-10T12:05:54.074Z,94.42
2018-11-10T12:08:27.582Z,94.54
2018-11-10T12:11:02.128Z,94.62
2018-11-10T12:13:42.861Z,94.72
2018-11-10T12:16:27.181Z,94.90
2018-11-10T12:18:57.411Z,95.07
2018-11-10T12:21:36.611Z,95.18
2018-11-10T12:24:19.679Z,95.25
2018-11-10T12:27:01.156Z,95.32
2018-11-10T12:29:56.415Z,95.34
2018-11-10T12:32:36.249Z,95.36
2018-11-10T12:35:14.553Z,95.37
2018-11-10T12:37:50.679Z,95.48
2018-11-10T12:40:31.747Z,95.57
2018-11-10T12:43:06.882Z,95.66
2018-11-10T12:45:50.871Z,95.80
2018-11-10T12:48:33.021Z,95.92
2018-11-10T12:51:09.140Z,96.02
2018-11-10T12:53:45.475Z,96.17
2018-11-10T12:56:21.788Z,96.29
2018-11-10T12:59:04.843Z,96.35
2018-11-10T13:01:42.589Z,96.44
2018-11-10T13:04:17.071Z,96.42
2018-11-10T13:06:52.988Z,96.48
2018-11-10T13:09:29.078Z,96.48
2018-11-10T13:12:07.901Z,96.51
2018-11-10T13:14:44.052Z,96.55
2018-11-10T13:17:18.139Z,96.48
2018-11-10T13:19:57.529Z,96.25
2018-11-10T13:22:37.788Z,96.12
2018-11-10T13:25:19.698Z,96.16
2018-11-10T13:27:56.191Z,96.20
2018-11-10T13:30:32.031Z,96.15
2018-11-10T13:33:08.175Z,96.07
2018-11-10T13:35:49.554Z,95.99
2018-11-10T13:38:24.720Z,95.93
2018-11-10T13:41:02.591Z,95.86
2018-11-10T13:43:38.044Z,95.75
2018-11-10T13:46:29.138Z,95.72
2018-11-10T13:49:06.568Z,95.74
2018-11-10T13:51:43.738Z,95.54
2018-11-10T13:54:23.320Z,95.44
2018-11-10T13:57:03.706Z,95.31
2018-11-10T13:59:40.790Z,95.30
2018-11-10T14:02:18.715Z,95.34
2018-11-10T14:04:59.262Z,95.43
2018-11-10T14:07:34.675Z,95.51
2018-11-10T14:10:15.086Z,95.45
2018-11-10T14:12:57.669Z,95.13
2018-11-10T14:15:41.487Z,94.96
2018-11-10T14:18:19.673Z,94.92
2018-11-10T14:20:58.299Z,94.98
2018-11-10T14:23:32.438Z,95.00
2018-11-10T14:26:05.952Z,94.93
2018-11-10T14:28:39.583Z,94.90
2018-11-10T14:31:14.520Z,94.79
2018-11-10T14:34:00.909Z,94.80
2018-11-10T14:36:36.029Z,94.84
2018-11-10T14:39:14.477Z,94.86
2018-11-10T14:41:55.413Z,94.88
2018-11-10T14:44:30.975Z,94.88
2018-11-10T14:47:09.641Z,94.79
2018-11-10T14:49:52.644Z,94.63
2018-11-10T14:52:28.012Z,94.57
2018-11-10T14:55:11.056Z,94.57
2018-11-10T14:57:55.828Z,94.60
2018-11-10T15:00:33.125Z,94.68
2018-11-10T15:03:13.342Z,94.56
2018-11-10T15:05:51.952Z,94.27
2018-11-10T15:08:33.783Z,94.24
2018-11-10T15:11:25.346Z,93.80
2018-11-10T15:14:34.538Z,93.34
2018-11-10T15:17:21.541Z,93.42
2018-11-10T15:23:12.572Z,93.48
2018-11-10T15:26:33.420Z,93.50
2018-11-10T15:29:41.278Z,93.37
2018-11-10T15:32:18.863Z,93.12
2018-11-10T15:34:56.685Z,92.77
2018-11-10T15:37:34.824Z,92.67
2018-11-10T15:40:14.865Z,92.58
2018-11-10T15:42:59.278Z,92.56
2018-11-10T15:45:39.000Z,92.53
2018-11-10T15:48:28.146Z,92.33
2018-11-10T15:51:06.414Z,92.22
2018-11-10T15:53:40.985Z,92.29
2018-11-10T15:56:18.861Z,92.29
2018-11-10T15:58:58.435Z,92.21
2018-11-10T16:01:39.842Z,92.23
2018-11-10T16:04:30.076Z,92.27
2018-11-10T16:07:11.218Z,92.04
2018-11-10T16:09:48.542Z,92.06
2018-11-10T16:12:30.174Z,92.07
2018-11-10T16:15:15.507Z,91.95
2018-11-10T16:17:49.855Z,91.67
2018-11-10T16:20:24.767Z,90.63
2018-11-10T16:22:59.806Z,90.67
2018-11-10T16:25:38.417Z,90.76
2018-11-10T16:28:16.549Z,90.85
2018-11-10T16:30:52.885Z,90.90
2018-11-10T16:33:37.294Z,90.86
2018-11-10T16:36:14.566Z,91.00
2018-11-10T16:38:53.298Z,91.05
2018-11-10T16:41:42.621Z,91.06
2018-11-10T16:44:17.202Z,91.01
2018-11-10T16:46:57.589Z,90.95
2018-11-10T16:49:31.058Z,90.82
2018-11-10T16:52:09.728Z,90.51
2018-11-10T16:54:51.912Z,90.49
2018-11-10T16:57:27.155Z,90.46
2018-11-10T17:00:06.338Z,90.39
2018-11-10T17:02:55.570Z,90.29
2018-11-10T17:05:33.608Z,90.18
2018-11-10T17:08:14.557Z,90.00
2018-11-10T17:11:40.576Z,89.79
2018-11-10T17:14:23.631Z,89.59
2018-11-10T17:16:58.279Z,89.51
2018-11-10T17:20:04.099Z,89.49
2018-11-10T17:22:44.062Z,89.48
2018-11-10T17:25:28.425Z,89.30
2018-11-10T17:28:05.706Z,89.01
2018-11-10T17:31:00.270Z,88.88
2018-11-10T17:33:36.915Z,88.97
2018-11-10T17:36:18.606Z,88.97
2018-11-10T17:38:57.401Z,88.83
2018-11-10T17:41:35.512Z,88.59
2018-11-10T17:44:17.976Z,88.36
2018-11-10T17:46:56.525Z,88.33
2018-11-10T17:49:31.243Z,88.22
2018-11-10T17:52:08.215Z,88.20
2018-11-10T17:54:43.374Z,88.10
2018-11-10T17:57:21.748Z,88.17
2018-11-10T17:59:57.740Z,87.95
2018-11-10T18:02:34.942Z,87.80
2018-11-10T18:05:16.682Z,87.89
2018-11-10T18:07:52.845Z,87.93
2018-11-10T18:10:31.451Z,87.56
2018-11-10T18:13:08.251Z,87.18
2018-11-10T18:15:50.389Z,87.08
2018-11-10T18:18:31.160Z,87.08
2018-11-10T18:21:14.900Z,87.21
2018-11-10T18:24:14.604Z,87.17
2018-11-10T18:26:49.619Z,87.24
2018-11-10T18:29:26.528Z,87.40
2018-11-10T18:32:08.205Z,87.72
2018-11-10T18:34:48.588Z,88.05
2018-11-10T18:37:35.712Z,88.54
2018-11-10T18:40:30.753Z,89.14
2018-11-10T18:43:12.746Z,89.71
2018-11-10T18:45:52.086Z,90.11
2018-11-10T18:48:41.308Z,90.46
2018-11-10T18:51:17.429Z,90.54
2018-11-10T18:54:10.284Z,90.96
2018-11-10T18:56:55.874Z,91.31
2018-11-10T18:59:38.754Z,91.79
2018-11-10T19:02:27.834Z,92.11
2018-11-10T19:05:04.074Z,92.71
2018-11-10T19:10:56.419Z,93.42
2018-11-10T19:13:59.704Z,93.92
2018-11-10T19:17:01.693Z,94.08
2018-11-10T19:19:48.589Z,94.46
2018-11-10T19:22:28.140Z,94.75
2018-11-10T19:25:09.164Z,95.21
2018-11-10T19:27:46.066Z,95.34
2018-11-10T19:30:20.865Z,95.52
2018-11-10T19:32:58.432Z,95.69
2018-11-10T19:35:39.643Z,96.01
2018-11-10T19:38:13.205Z,96.23
2018-11-10T19:40:49.532Z,96.52
2018-11-10T19:43:32.360Z,96.77
2018-11-10T19:46:11.431Z,97.06
2018-11-10T19:48:44.774Z,97.16
2018-11-10T19:51:26.848Z,97.27
2018-11-10T19:54:05.366Z,97.52
2018-11-10T19:56:44.335Z,97.61
2018-11-10T19:59:33.362Z,97.69
2018-11-10T20:02:17.403Z,97.80
2018-11-10T20:04:57.430Z,97.90
2018-11-10T20:07:38.006Z,98.02
2018-11-10T20:10:27.709Z,98.13
2018-11-10T20:13:06.258Z,98.36
2018-11-10T20:15:47.875Z,98.53
2018-11-10T20:18:25.890Z,98.57
2018-11-10T20:21:03.523Z,98.65
2018-11-10T20:23:42.485Z,98.68
2018-11-10T20:26:19.115Z,98.79
2018-11-10T20:29:23.185Z,98.85
2018-11-10T20:32:04.313Z,98.94
2018-11-10T20:34:40.309Z,99.04
2018-11-10T20:37:15.820Z,99.18
2018-11-10T20:39:59.178Z,99.23
2018-11-10T20:42:35.671Z,99.34
2018-11-10T20:45:16.685Z,99.43
2018-11-10T20:47:54.431Z,99.52
2018-11-10T20:50:39.219Z,99.53
2018-11-10T20:53:34.568Z,99.55
2018-11-10T20:56:18.670Z,99.60
2018-11-10T20:58:58.820Z,99.71
2018-11-10T21:01:32.449Z,99.77
2018-11-10T21:04:09.063Z,99.83
2018-11-10T21:06:48.818Z,99.89
2018-11-10T21:09:32.221Z,99.92
2018-11-10T21:12:08.698Z,100.00
2018-11-10T21:14:55.913Z,100.00
2018-11-10T21:17:40.505Z,100.00
2018-11-10T21:20:26.858Z,100.00
2018-11-10T21:23:04.676Z,100.00
2018-11-10T21:25:40.212Z,100.00
2018-11-10T21:28:21.868Z,100.00
2018-11-10T21:30:59.655Z,100.00
2018-11-10T21:33:45.617Z,100.00
2018-11-10T21:36:26.582Z,100.00
2018-11-10T21:39:05.773Z,100.00
2018-11-10T21:41:43.345Z,100.00
2018-11-10T21:44:30.764Z,100.00
2018-11-10T21:47:26.998Z,100.00
2018-11-10T21:50:01.344Z,100.00
2018-11-10T21:52:48.701Z,100.00
2018-11-10T21:55:37.571Z,100.00
2018-11-10T21:58:22.748Z,100.00
2018-11-10T22:01:00.949Z,100.00
2018-11-10T22:03:41.518Z,99.90
2018-11-10T22:06:21.934Z,99.15
2018-11-10T22:08:59.979Z,98.44
2018-11-10T22:11:43.351Z,98.11
2018-11-10T22:14:21.244Z,97.98
2018-11-10T22:17:05.549Z,97.92
2018-11-10T22:19:46.666Z,97.77
2018-11-10T22:22:21.261Z,97.67
2018-11-10T22:25:00.476Z,97.56
2018-11-10T22:27:37.005Z,97.54
2018-11-10T22:30:21.013Z,97.46
2018-11-10T22:32:58.882Z,97.34
2018-11-10T22:35:33.289Z,97.31
2018-11-10T22:38:33.361Z,97.47
2018-11-10T22:41:07.627Z,97.52
2018-11-10T22:43:48.559Z,97.41
2018-11-10T22:46:27.998Z,97.35
2018-11-10T22:49:11.599Z,97.26
2018-11-10T22:51:46.589Z,97.05
2018-11-10T22:54:28.438Z,96.75
2018-11-10T22:57:02.940Z,96.39
2018-11-10T22:59:37.478Z,96.15
2018-11-10T23:02:13.642Z,96.05
2018-11-10T23:04:54.549Z,95.97
2018-11-10T23:07:29.925Z,95.94
2018-11-10T23:10:05.746Z,95.80
2018-11-10T23:12:44.439Z,95.58
2018-11-10T23:15:18.228Z,95.38
2018-11-10T23:17:54.781Z,95.08
2018-11-10T23:20:34.099Z,94.75
2018-11-10T23:23:16.602Z,94.65
2018-11-10T23:25:51.217Z,94.02
2018-11-10T23:28:28.354Z,93.67
2018-11-10T23:31:08.395Z,93.20
2018-11-10T23:33:47.904Z,92.94
2018-11-10T23:36:25.757Z,92.56
2018-11-10T23:39:00.238Z,92.08
2018-11-10T23:41:39.411Z,91.75
2018-11-10T23:44:16.383Z,91.24
2018-11-10T23:46:52.475Z,91.01
2018-11-10T23:49:26.188Z,90.63
2018-11-10T23:51:59.033Z,90.44
2018-11-10T23:54:32.395Z,90.57
2018-11-10T23:57:09.295Z,90.43
2018-11-10T23:59:42.504Z,90.23
